Time;durP1;ratioP1;P1;durP2;ratioP2;P2;SDS_P1;SDS_P2;PMS_P1;PMS_P2;Temp;Humidity;BMP_temperature;BMP_pressure;BME280_temperature;BME280_humidity;BME280_pressure;Samples;Min_cycle;Max_cycle;Signal;HPM_P1;HPM_P2
2022/07/07 00:00:14;;;;;;;;;;;;;;;17.66;55.64;101660.63;5021504;28;20105;-77
2022/07/07 00:02:39;;;;;;;;;;;;;;;17.70;55.95;101649.97;5020856;28;19921;-77
2022/07/07 00:05:04;;;;;;;;;;;;;;;17.64;55.71;101655.44;5015459;28;20026;-81
2022/07/07 00:07:30;;;;;;;;;;;;;;;17.67;55.72;101657.97;5019451;28;20028;-81
2022/07/07 00:09:55;;;;;;;;;;;;;;;17.71;54.81;101646.41;5019647;28;19928;-81
2022/07/07 00:12:20;;;;;;;;;;;;;;;17.66;55.33;101640.47;5017698;28;19945;-81
2022/07/07 00:14:46;;;;;;;;;;;;;;;17.68;55.12;101638.63;5021915;28;19972;-81
2022/07/07 00:17:12;;;;;;;;;;;;;;;17.70;55.08;101636.84;5019861;28;20097;-81
2022/07/07 00:19:37;;;;;;;;;;;;;;;17.66;55.16;101634.34;5020173;28;19964;-81
2022/07/07 00:22:02;;;;;;;;;;;;;;;17.63;55.69;101630.06;5021641;28;19948;-80
2022/07/07 00:24:28;;;;;;;;;;;;;;;17.69;55.83;101629.00;5020103;28;20734;-81
2022/07/07 00:26:53;;;;;;;;;;;;;;;17.71;54.63;101627.19;5019107;28;20446;-81
2022/07/07 00:29:18;;;;;;;;;;;;;;;17.63;54.44;101630.06;5023462;28;19965;-81
2022/07/07 00:31:44;;;;;;;;;;;;;;;17.68;54.97;101617.63;5023863;28;20313;-81
2022/07/07 00:34:09;;;;;;;;;;;;;;;17.68;54.58;101616.78;5021188;28;19926;-81
2022/07/07 00:36:36;;;;;;;;;;;;;;;17.66;54.08;101614.19;5018982;28;19956;-81
2022/07/07 00:39:02;;;;;;;;;;;;;;;17.68;55.08;101601.03;5020958;28;19929;-82
2022/07/07 00:41:27;;;;;;;;;;;;;;;17.66;55.37;101601.06;5019133;28;19930;-81
2022/07/07 00:43:52;;;;;;;;;;;;;;;17.66;55.06;101600.19;5018145;28;19930;-81
2022/07/07 00:46:19;;;;;;;;;;;;;;;17.65;54.93;101601.97;5016551;28;19924;-78
2022/07/07 00:48:44;;;;;;;;;;;;;;;17.69;55.10;101606.19;5022106;28;19925;-77
2022/07/07 00:51:11;;;;;;;;;;;;;;;17.66;55.34;101601.06;5019563;28;19932;-78
2022/07/07 00:53:36;;;;;;;;;;;;;;;17.65;54.61;101607.22;5020460;28;19933;-78
2022/07/07 00:56:02;;;;;;;;;;;;;;;17.67;55.43;101602.78;5010363;28;19925;-78
2022/07/07 00:58:27;;;;;;;;;;;;;;;17.62;55.58;101607.34;5002307;28;20007;-79
2022/07/07 01:00:52;;;;;;;;;;;;;;;17.62;55.91;101596.00;5006935;28;19929;-79
2022/07/07 01:03:18;;;;;;;;;;;;;;;17.64;55.67;101599.41;5000955;28;19930;-79
2022/07/07 01:05:47;;;;;;;;;;;;;;;17.68;55.89;101593.13;5004843;28;20022;-79
2022/07/07 01:08:15;;;;;;;;;;;;;;;17.64;56.45;101587.13;5004688;28;19972;-79
2022/07/07 01:10:40;;;;;;;;;;;;;;;17.62;55.69;101581.06;5006468;28;19929;-79
2022/07/07 01:13:06;;;;;;;;;;;;;;;17.63;55.43;101580.16;5002078;28;19932;-79
2022/07/07 01:15:31;;;;;;;;;;;;;;;17.54;56.49;101575.22;5007237;28;20538;-79
2022/07/07 01:17:56;;;;;;;;;;;;;;;17.54;56.25;101573.44;5006798;28;19929;-79
2022/07/07 01:20:22;;;;;;;;;;;;;;;17.58;56.62;101572.44;5009460;28;20285;-78
2022/07/07 01:22:50;;;;;;;;;;;;;;;17.58;56.44;101574.19;5005889;28;20023;-79
2022/07/07 01:25:15;;;;;;;;;;;;;;;17.57;56.82;101568.06;5006304;28;20518;-81
2022/07/07 01:27:41;;;;;;;;;;;;;;;17.52;56.25;101564.78;5006680;28;19957;-81
2022/07/07 01:30:06;;;;;;;;;;;;;;;17.53;55.93;101557.75;5006806;28;20467;-81
2022/07/07 01:32:31;;;;;;;;;;;;;;;17.55;55.68;101555.91;5005349;28;19929;-79
2022/07/07 01:34:57;;;;;;;;;;;;;;;17.59;55.81;101558.38;5007454;28;19938;-79
2022/07/07 01:37:24;;;;;;;;;;;;;;;17.58;56.17;101558.44;5004679;28;19968;-79
2022/07/07 01:39:50;;;;;;;;;;;;;;;17.54;57.36;101562.06;5006412;28;20021;-78
2022/07/07 01:42:15;;;;;;;;;;;;;;;17.59;56.22;101555.75;5007689;28;19996;-77
2022/07/07 01:44:42;;;;;;;;;;;;;;;17.52;56.97;101558.66;5007186;28;19932;-77
2022/07/07 01:47:08;;;;;;;;;;;;;;;17.41;57.06;101556.41;5008759;28;20857;-77
2022/07/07 01:49:33;;;;;;;;;;;;;;;17.50;56.83;101550.81;5004069;28;19929;-77
2022/07/07 01:51:59;;;;;;;;;;;;;;;17.47;57.64;101561.44;5009292;28;19917;-81
2022/07/07 01:54:27;;;;;;;;;;;;;;;17.52;56.94;101551.63;5004765;28;20301;-81
2022/07/07 01:56:53;;;;;;;;;;;;;;;17.40;57.24;101553.84;5004314;28;20016;-81
2022/07/07 01:59:18;;;;;;;;;;;;;;;17.49;57.28;101549.13;5002699;28;20008;-81
2022/07/07 02:01:44;;;;;;;;;;;;;;;17.48;57.62;101550.03;5005620;28;20671;-81
2022/07/07 02:04:09;;;;;;;;;;;;;;;17.49;57.53;101545.63;5002994;28;19933;-81
2022/07/07 02:06:34;;;;;;;;;;;;;;;17.48;58.13;101539.53;5005837;28;20024;-78
2022/07/07 02:09:00;;;;;;;;;;;;;;;17.46;57.78;101537.88;5003947;28;19925;-78
2022/07/07 02:11:28;;;;;;;;;;;;;;;17.48;57.65;101543.91;4997145;28;20387;-78
2022/07/07 02:13:54;;;;;;;;;;;;;;;17.49;57.12;101545.63;5007444;28;19926;-78
2022/07/07 02:16:20;;;;;;;;;;;;;;;17.49;57.84;101538.63;5005280;28;19998;-77
2022/07/07 02:18:46;;;;;;;;;;;;;;;17.50;57.57;101526.34;4998770;28;20356;-77
2022/07/07 02:21:13;;;;;;;;;;;;;;;17.48;58.07;101526.38;5005322;28;19925;-78
2022/07/07 02:23:39;;;;;;;;;;;;;;;17.51;57.33;101522.78;5008223;28;19925;-78
2022/07/07 02:26:04;;;;;;;;;;;;;;;17.48;58.34;101520.28;5004135;28;19926;-78
2022/07/07 02:28:30;;;;;;;;;;;;;;;17.44;58.94;101523.94;5003873;28;19929;-78
2022/07/07 02:30:55;;;;;;;;;;;;;;;17.51;58.10;101522.78;5002933;28;19929;-78
2022/07/07 02:33:21;;;;;;;;;;;;;;;17.48;58.53;101512.38;5006049;28;19925;-78
2022/07/07 02:35:47;;;;;;;;;;;;;;;17.53;58.79;101511.28;5005200;28;19929;-78
2022/07/07 02:38:12;;;;;;;;;;;;;;;17.48;59.24;101518.50;5006675;28;19967;-78
2022/07/07 02:40:38;;;;;;;;;;;;;;;17.53;59.43;101513.91;5006529;28;20430;-77
2022/07/07 02:43:03;;;;;;;;;;;;;;;17.51;60.81;101515.75;5006245;28;20622;-77
2022/07/07 02:45:28;;;;;;;;;;;;;;;17.38;61.59;101513.66;5000871;28;19999;-77
2022/07/07 02:47:53;;;;;;;;;;;;;;;17.41;62.47;101513.56;5007318;28;19930;-77
2022/07/07 02:50:19;;;;;;;;;;;;;;;17.38;60.89;101498.75;5002138;28;20308;-77
2022/07/07 02:52:44;;;;;;;;;;;;;;;17.31;61.91;101499.91;5004751;28;19929;-77
2022/07/07 02:55:10;;;;;;;;;;;;;;;17.37;61.20;101502.31;5005500;28;19929;-80
2022/07/07 02:57:36;;;;;;;;;;;;;;;17.40;60.69;101494.31;5003322;28;19928;-81
2022/07/07 03:00:03;;;;;;;;;;;;;;;17.39;60.86;101494.34;5004840;28;19925;-81
2022/07/07 03:02:28;;;;;;;;;;;;;;;17.38;61.69;101501.38;4998708;28;20424;-77
2022/07/07 03:04:53;;;;;;;;;;;;;;;17.36;63.15;101500.56;5005222;28;20029;-79
2022/07/07 03:07:19;;;;;;;;;;;;;;;17.38;62.65;101498.75;5000832;28;19929;-79
2022/07/07 03:09:45;;;;;;;;;;;;;;;17.38;62.43;101497.91;5002828;28;19984;-79
2022/07/07 03:12:10;;;;;;;;;;;;;;;17.32;62.98;101495.50;5004392;28;19964;-78
2022/07/07 03:14:36;;;;;;;;;;;;;;;17.34;62.97;101491.91;5002474;28;19921;-79
2022/07/07 03:17:01;;;;;;;;;;;;;;;17.36;62.46;101490.06;4987852;28;19925;-78
2022/07/07 03:19:27;;;;;;;;;;;;;;;17.40;61.77;101486.44;5004349;28;20384;-79
2022/07/07 03:21:52;;;;;;;;;;;;;;;17.38;60.96;101496.13;5002775;28;19917;-79
2022/07/07 03:24:17;;;;;;;;;;;;;;;17.31;60.60;101492.03;5005759;28;19929;-78
2022/07/07 03:26:42;;;;;;;;;;;;;;;17.38;60.54;101482.16;5005181;28;19922;-78
2022/07/07 03:29:08;;;;;;;;;;;;;;;17.37;61.26;101485.69;5004802;28;20008;-79
2022/07/07 03:31:33;;;;;;;;;;;;;;;17.40;61.45;101483.81;5000437;28;19925;-78
2022/07/07 03:33:58;;;;;;;;;;;;;;;17.43;62.02;101491.56;5004873;28;19917;-78
2022/07/07 03:36:24;;;;;;;;;;;;;;;17.46;61.33;101491.44;5002479;28;20363;-77
2022/07/07 03:38:49;;;;;;;;;;;;;;;17.42;61.03;101481.97;5004058;28;19929;-77
2022/07/07 03:41:15;;;;;;;;;;;;;;;17.43;61.04;101481.06;5002968;28;20001;-76
2022/07/07 03:43:40;;;;;;;;;;;;;;;17.47;60.42;101473.91;5000073;28;19929;-77
2022/07/07 03:46:05;;;;;;;;;;;;;;;17.44;61.30;101474.03;5006181;28;19964;-77
2022/07/07 03:48:30;;;;;;;;;;;;;;;17.42;61.51;101470.59;5005042;28;19929;-76
2022/07/07 03:50:56;;;;;;;;;;;;;;;17.45;61.75;101471.34;5007193;28;19968;-77
2022/07/07 03:53:21;;;;;;;;;;;;;;;17.37;61.79;101462.03;5005084;28;20639;-77
2022/07/07 03:55:46;;;;;;;;;;;;;;;17.45;61.74;101457.34;5003386;28;19930;-76
2022/07/07 03:58:12;;;;;;;;;;;;;;;17.42;61.36;101460.09;5004932;28;19914;-77
2022/07/07 04:00:37;;;;;;;;;;;;;;;17.47;60.92;101460.78;5001979;28;19975;-77
2022/07/07 04:03:03;;;;;;;;;;;;;;;17.50;60.98;101458.03;5003942;28;19979;-78
2022/07/07 04:05:28;;;;;;;;;;;;;;;17.47;61.12;101461.63;5001638;28;19954;-77
2022/07/07 04:07:53;;;;;;;;;;;;;;;17.47;61.53;101460.78;5006684;28;20008;-77
2022/07/07 04:10:18;;;;;;;;;;;;;;;17.50;61.88;101465.94;5000724;28;20581;-77
2022/07/07 04:12:44;;;;;;;;;;;;;;;17.50;61.21;101464.13;5003189;28;19927;-77
2022/07/07 04:15:09;;;;;;;;;;;;;;;17.41;61.68;101463.66;5002842;28;19925;-77
2022/07/07 04:17:35;;;;;;;;;;;;;;;17.43;61.68;101462.66;5004999;28;19952;-77
2022/07/07 04:20:01;;;;;;;;;;;;;;;17.41;61.97;101461.84;5004221;28;19932;-77
2022/07/07 04:22:26;;;;;;;;;;;;;;;17.40;62.05;101469.81;5002104;28;20439;-77
2022/07/07 04:24:51;;;;;;;;;;;;;;;17.37;62.24;101462.03;5003053;28;19926;-77
2022/07/07 04:27:17;;;;;;;;;;;;;;;17.46;62.17;101456.44;5001910;28;19922;-77
2022/07/07 04:29:42;;;;;;;;;;;;;;;17.39;62.55;101465.47;5003514;28;19922;-77
2022/07/07 04:32:08;;;;;;;;;;;;;;;17.39;62.82;101461.06;5004536;28;19933;-77
2022/07/07 04:34:33;;;;;;;;;;;;;;;17.43;62.93;101459.19;5003178;28;19929;-77
2022/07/07 04:36:58;;;;;;;;;;;;;;;17.48;62.33;101463.34;5008642;28;20621;-77
2022/07/07 04:39:24;;;;;;;;;;;;;;;17.51;62.72;101457.09;5007696;28;19929;-77
2022/07/07 04:41:49;;;;;;;;;;;;;;;17.31;63.84;101463.13;5002933;28;19922;-76
2022/07/07 04:44:14;;;;;;;;;;;;;;;17.43;63.26;101457.41;5007153;28;19955;-77
2022/07/07 04:46:40;;;;;;;;;;;;;;;17.41;63.42;101447.88;5007157;28;19936;-77
2022/07/07 04:49:05;;;;;;;;;;;;;;;17.45;63.36;101441.59;5006419;28;19917;-77
2022/07/07 04:51:30;;;;;;;;;;;;;;;17.42;63.53;101450.44;5005511;28;19926;-77
2022/07/07 04:53:56;;;;;;;;;;;;;;;17.33;64.43;101440.28;5006693;28;20285;-77
2022/07/07 04:56:21;;;;;;;;;;;;;;;17.36;64.24;101442.81;4990572;28;21109;-77
2022/07/07 04:58:46;;;;;;;;;;;;;;;17.44;63.81;101439.91;5004501;28;20024;-77
2022/07/07 05:01:12;;;;;;;;;;;;;;;17.46;64.22;101438.06;5006842;28;19921;-77
2022/07/07 05:03:37;;;;;;;;;;;;;;;17.46;63.88;101441.53;5006633;28;19929;-81
2022/07/07 05:06:03;;;;;;;;;;;;;;;17.41;64.33;101445.25;5007141;28;20467;-80
2022/07/07 05:08:29;;;;;;;;;;;;;;;17.52;63.89;101440.44;5006309;28;19921;-81
2022/07/07 05:10:55;;;;;;;;;;;;;;;17.51;64.26;101434.31;5005456;28;20039;-81
2022/07/07 05:13:20;;;;;;;;;;;;;;;17.45;63.92;101431.94;5003538;28;20562;-81
2022/07/07 05:15:46;;;;;;;;;;;;;;;17.35;64.60;101435.00;5006966;28;19936;-81
2022/07/07 05:18:11;;;;;;;;;;;;;;;17.44;64.92;101435.47;5008770;28;20388;-76
2022/07/07 05:20:36;;;;;;;;;;;;;;;17.44;64.89;101438.09;5006928;28;19925;-78
2022/07/07 05:23:02;;;;;;;;;;;;;;;17.46;64.43;101428.41;5007345;28;20694;-79
2022/07/07 05:25:27;;;;;;;;;;;;;;;17.47;64.74;101426.66;5005033;28;20454;-79
2022/07/07 05:27:53;;;;;;;;;;;;;;;17.42;65.13;101431.19;5004727;28;20475;-79
2022/07/07 05:30:19;;;;;;;;;;;;;;;17.39;65.27;101432.19;5005858;28;19928;-79
2022/07/07 05:32:45;;;;;;;;;;;;;;;17.45;65.22;101434.56;5005219;28;19930;-80
2022/07/07 05:35:10;;;;;;;;;;;;;;;17.44;65.04;101424.97;5007905;28;19932;-77
2022/07/07 05:37:35;;;;;;;;;;;;;;;17.43;64.71;101414.53;5005093;28;20512;-77
2022/07/07 05:40:01;;;;;;;;;;;;;;;17.50;64.63;101422.09;5006892;28;19932;-77
2022/07/07 05:42:26;;;;;;;;;;;;;;;17.48;64.49;101425.72;5007584;28;19925;-77
2022/07/07 05:44:51;;;;;;;;;;;;;;;17.50;64.48;101427.34;5003345;28;19925;-77
2022/07/07 05:47:17;;;;;;;;;;;;;;;17.43;64.54;101435.53;5008501;28;19926;-77
2022/07/07 05:49:42;;;;;;;;;;;;;;;17.47;64.77;101440.59;5006955;28;20407;-77
2022/07/07 05:52:08;;;;;;;;;;;;;;;17.48;64.77;101436.22;5010497;28;20012;-81
2022/07/07 05:54:33;;;;;;;;;;;;;;;17.46;64.66;101448.56;5007841;28;19925;-80
2022/07/07 05:56:58;;;;;;;;;;;;;;;17.48;64.37;101454.59;5004965;28;19928;-79
2022/07/07 05:59:24;;;;;;;;;;;;;;;17.46;64.74;101445.94;5007590;28;19925;-79
2022/07/07 06:01:49;;;;;;;;;;;;;;;17.44;64.97;101445.16;5006905;28;19984;-79
2022/07/07 06:04:15;;;;;;;;;;;;;;;17.27;67.01;101447.53;5018712;28;19952;-78
2022/07/07 06:06:40;;;;;;;;;;;;;;;17.39;65.45;101449.69;5010030;28;19975;-77
2022/07/07 06:09:05;;;;;;;;;;;;;;;17.45;65.89;101449.47;5006970;28;20396;-77
2022/07/07 06:11:31;;;;;;;;;;;;;;;17.50;65.67;101451.00;5003557;28;19987;-78
2022/07/07 06:13:56;;;;;;;;;;;;;;;17.46;65.28;101454.69;5009595;28;19921;-78
2022/07/07 06:16:38;;;;;;;;;;;;;;;17.37;65.79;101455.03;5007162;28;19972;-79
2022/07/07 06:19:13;;;;;;;;;;;;;;;17.50;65.92;101460.66;5012012;28;19952;-79
2022/07/07 06:21:39;;;;;;;;;;;;;;;17.49;66.67;101462.44;5009351;28;19964;-80
2022/07/07 06:24:05;;;;;;;;;;;;;;;17.41;67.82;101461.84;5006263;28;19925;-80
2022/07/07 06:26:30;;;;;;;;;;;;;;;17.40;69.10;101459.31;5003885;28;19944;-80
2022/07/07 06:28:56;;;;;;;;;;;;;;;17.34;69.35;101457.78;5009727;28;19979;-79
2022/07/07 06:31:21;;;;;;;;;;;;;;;17.39;68.62;101452.31;5005346;28;19932;-79
2022/07/07 06:33:47;;;;;;;;;;;;;;;17.38;70.43;101458.50;5007076;28;19987;-79
2022/07/07 06:36:12;;;;;;;;;;;;;;;17.29;70.02;101466.75;4985450;28;19922;-79
2022/07/07 06:38:38;;;;;;;;;;;;;;;17.34;70.04;101470.03;5011799;28;19979;-80
2022/07/07 06:41:03;;;;;;;;;;;;;;;17.32;70.61;101469.25;5005769;28;20011;-80
2022/07/07 06:43:28;;;;;;;;;;;;;;;17.25;71.03;101481.75;5001853;28;19934;-79
2022/07/07 06:45:54;;;;;;;;;;;;;;;17.02;72.67;101490.47;5003717;28;20363;-79
2022/07/07 06:48:20;;;;;;;;;;;;;;;17.22;72.24;101499.38;5004209;28;19973;-79
2022/07/07 06:50:45;;;;;;;;;;;;;;;17.00;73.28;101504.53;5004252;28;19929;-79
2022/07/07 06:53:11;;;;;;;;;;;;;;;16.75;75.51;101511.59;5007340;28;19952;-79
2022/07/07 06:55:36;;;;;;;;;;;;;;;16.65;75.72;101515.38;5004795;28;19922;-78
2022/07/07 06:58:05;;;;;;;;;;;;;;;16.45;74.54;101518.69;5007332;28;20427;-78
2022/07/07 07:00:30;;;;;;;;;;;;;;;16.59;74.05;101516.44;5007538;28;20027;-78
2022/07/07 07:02:56;;;;;;;;;;;;;;;16.62;74.18;101516.34;5009322;28;20381;-78
2022/07/07 07:05:22;;;;;;;;;;;;;;;16.36;73.91;101521.63;5004326;28;19936;-77
2022/07/07 07:07:47;;;;;;;;;;;;;;;16.55;73.42;101525.31;5004328;28;19936;-78
2022/07/07 07:10:13;;;;;;;;;;;;;;;16.79;73.51;101531.56;5005771;28;19975;-78
2022/07/07 07:12:38;;;;;;;;;;;;;;;16.64;73.84;101530.25;5002157;28;19926;-78
2022/07/07 07:15:04;;;;;;;;;;;;;;;16.87;73.17;101524.28;5004097;28;19930;-77
2022/07/07 07:17:30;;;;;;;;;;;;;;;16.97;72.78;101526.50;5000587;28;20012;-78
2022/07/07 07:19:55;;;;;;;;;;;;;;;16.77;72.70;101538.63;5005187;28;19922;-78
2022/07/07 07:22:21;;;;;;;;;;;;;;;16.90;72.16;101521.53;4999815;28;19925;-77
2022/07/07 07:24:46;;;;;;;;;;;;;;;16.90;71.42;101527.66;5009004;28;19926;-78
2022/07/07 07:27:11;;;;;;;;;;;;;;;16.93;72.15;101529.31;5003738;28;19934;-77
2022/07/07 07:29:37;;;;;;;;;;;;;;;17.08;71.13;101535.78;5001074;28;19937;-78
2022/07/07 07:32:02;;;;;;;;;;;;;;;17.06;71.44;101534.06;4999935;28;19926;-78
2022/07/07 07:34:28;;;;;;;;;;;;;;;16.99;72.11;101536.97;5020051;28;21470;-78
2022/07/07 07:36:53;;;;;;;;;;;;;;;17.08;71.10;101528.78;4998513;28;19922;-78
2022/07/07 07:39:18;;;;;;;;;;;;;;;16.97;70.71;101542.25;5004572;28;19980;-78
2022/07/07 07:41:43;;;;;;;;;;;;;;;17.00;71.48;101531.66;4982324;28;19930;-77
2022/07/07 07:44:09;;;;;;;;;;;;;;;17.02;70.51;101535.09;4989203;28;19936;-78
2022/07/07 07:46:35;;;;;;;;;;;;;;;16.99;69.59;101543.09;5007105;28;19918;-78
2022/07/07 07:49:05;;;;;;;;;;;;;;;17.14;69.43;101540.81;5003841;28;19929;-77
2022/07/07 07:51:30;;;;;;;;;;;;;;;17.13;69.69;101537.34;5000800;28;20447;-78
2022/07/07 07:53:55;;;;;;;;;;;;;;;17.21;69.53;101545.78;4997238;28;19977;-77
2022/07/07 07:56:21;;;;;;;;;;;;;;;17.19;69.93;101550.25;5006763;28;19933;-78
2022/07/07 07:58:46;;;;;;;;;;;;;;;17.03;68.56;101555.16;5006327;28;19949;-78
2022/07/07 08:01:11;;;;;;;;;;;;;;;16.99;67.67;101545.72;5008500;28;20020;-78
2022/07/07 08:03:37;;;;;;;;;;;;;;;17.01;67.86;101553.50;4999173;28;19930;-78
2022/07/07 08:06:02;;;;;;;;;;;;;;;17.10;67.09;101539.19;5007661;28;20391;-78
2022/07/07 08:08:27;;;;;;;;;;;;;;;17.32;67.46;101543.59;5009585;28;19930;-78
2022/07/07 08:10:53;;;;;;;;;;;;;;;17.37;66.76;101557.47;5009620;28;20508;-78
2022/07/07 08:13:18;;;;;;;;;;;;;;;17.27;67.27;101561.31;5005951;28;20300;-78
2022/07/07 08:15:43;;;;;;;;;;;;;;;17.12;67.78;101561.00;5010330;28;19918;-78
2022/07/07 08:18:09;;;;;;;;;;;;;;;17.10;67.38;101558.44;5008803;28;19956;-78
2022/07/07 08:20:34;;;;;;;;;;;;;;;17.24;67.44;101564.03;5008136;28;19925;-78
2022/07/07 08:22:59;;;;;;;;;;;;;;;17.14;67.20;101567.94;5010241;28;19926;-78
2022/07/07 08:25:25;;;;;;;;;;;;;;;17.25;66.00;101564.91;5006850;28;19988;-78
2022/07/07 08:27:50;;;;;;;;;;;;;;;17.14;66.70;101582.81;5004368;28;19983;-78
2022/07/07 08:30:17;;;;;;;;;;;;;;;16.77;73.66;101606.84;5006400;28;20017;-78
2022/07/07 08:32:45;;;;;;;;;;;;;;;16.12;74.70;101601.03;5009187;28;19944;-77
2022/07/07 08:35:10;;;;;;;;;;;;;;;15.83;78.72;101604.53;5007684;28;19921;-77
2022/07/07 08:37:36;;;;;;;;;;;;;;;15.83;77.97;101608.03;5002442;28;19925;-76
2022/07/07 08:40:01;;;;;;;;;;;;;;;15.71;74.42;101597.88;5007142;28;19921;-76
2022/07/07 08:42:26;;;;;;;;;;;;;;;16.06;77.57;101614.31;5004597;28;20724;-76
2022/07/07 08:44:52;;;;;;;;;;;;;;;16.04;75.69;101606.53;5005531;28;19929;-76
2022/07/07 08:47:17;;;;;;;;;;;;;;;15.90;77.42;101620.03;5007497;28;20122;-80
2022/07/07 08:49:43;;;;;;;;;;;;;;;15.86;76.97;101613.19;5005531;28;19928;-78
2022/07/07 08:52:08;;;;;;;;;;;;;;;16.12;77.96;101611.53;5008815;28;20349;-78
2022/07/07 08:54:37;;;;;;;;;;;;;;;16.10;76.77;101613.34;5004457;28;20372;-78
2022/07/07 08:57:03;;;;;;;;;;;;;;;16.08;76.67;101623.00;5005304;28;20012;-78
2022/07/07 08:59:28;;;;;;;;;;;;;;;16.08;75.23;101626.47;5006002;28;20367;-78
2022/07/07 09:01:58;;;;;;;;;;;;;;;16.02;75.56;101613.56;5007037;28;19980;-78
2022/07/07 09:04:24;;;;;;;;;;;;;;;16.04;76.73;101624.88;5008644;28;19975;-80
2022/07/07 09:06:53;;;;;;;;;;;;;;;16.35;75.80;101632.63;5006015;28;20304;-80
2022/07/07 09:09:28;;;;;;;;;;;;;;;16.28;75.42;101623.28;5006200;28;20611;-78
2022/07/07 09:11:59;;;;;;;;;;;;;;;16.16;70.81;101624.50;5008106;28;19922;-77
2022/07/07 09:14:24;;;;;;;;;;;;;;;16.18;72.05;101613.97;5007257;28;19925;-77
2022/07/07 09:16:49;;;;;;;;;;;;;;;16.35;71.90;101617.78;5008320;28;20428;-77
2022/07/07 09:19:19;;;;;;;;;;;;;;;16.39;72.05;101623.78;5006396;28;19926;-77
2022/07/07 09:21:44;;;;;;;;;;;;;;;16.44;71.75;101635.84;5004882;28;19987;-77
2022/07/07 09:24:09;;;;;;;;;;;;;;;16.45;71.67;101632.31;5005611;28;19965;-76
2022/07/07 09:26:42;;;;;;;;;;;;;;;16.49;71.25;101625.22;5007421;28;19928;-77
2022/07/07 09:29:09;;;;;;;;;;;;;;;16.42;70.41;101639.44;5004669;28;20534;-79
2022/07/07 09:31:49;;;;;;;;;;;;;;;16.42;70.92;101644.66;5006030;28;19921;-78
2022/07/07 09:34:14;;;;;;;;;;;;;;;16.30;68.88;101650.28;5007063;28;20292;-77
2022/07/07 09:39:24;;;;;;;;;;;;;;;16.14;71.70;101688.34;5005598;28;19952;-76
2022/07/07 09:41:49;;;;;;;;;;;;;;;16.20;71.19;101678.53;5005828;28;20392;-77
2022/07/07 09:44:19;;;;;;;;;;;;;;;16.32;70.73;101675.56;5006341;28;19937;-77
2022/07/07 09:46:44;;;;;;;;;;;;;;;16.54;71.49;101683.63;5006580;28;20039;-77
2022/07/07 09:49:10;;;;;;;;;;;;;;;16.52;70.09;101677.59;5009070;28;20111;-77
2022/07/07 09:51:35;;;;;;;;;;;;;;;16.57;68.70;101680.91;5006763;28;20411;-77
2022/07/07 09:54:03;;;;;;;;;;;;;;;16.53;69.56;101690.63;5005751;28;19925;-77
2022/07/07 09:56:34;;;;;;;;;;;;;;;16.75;68.09;101684.75;4996177;28;19921;-77
2022/07/07 09:59:00;;;;;;;;;;;;;;;16.58;67.34;101687.84;5007973;28;19921;-77
2022/07/07 10:01:27;;;;;;;;;;;;;;;16.60;67.35;101696.56;5004978;28;19929;-77
2022/07/07 10:04:04;;;;;;;;;;;;;;;16.83;66.50;101687.97;5005208;28;19926;-77
2022/07/07 10:06:30;;;;;;;;;;;;;;;16.80;65.73;101695.94;5004470;28;19925;-77
2022/07/07 10:09:01;;;;;;;;;;;;;;;16.65;65.39;101685.91;5006893;28;19929;-77
2022/07/07 10:11:32;;;;;;;;;;;;;;;16.51;70.82;101695.06;5005608;28;20005;-77
2022/07/07 10:14:00;;;;;;;;;;;;;;;16.70;68.06;101698.00;5003620;28;19928;-77
2022/07/07 10:16:26;;;;;;;;;;;;;;;16.70;68.21;101703.25;5004285;28;20388;-77
2022/07/07 10:18:51;;;;;;;;;;;;;;;16.52;66.70;101704.66;5009585;28;19932;-77
2022/07/07 10:21:17;;;;;;;;;;;;;;;16.64;65.77;101713.06;5005609;28;20393;-77
2022/07/07 10:23:42;;;;;;;;;;;;;;;16.77;64.05;101699.53;5006270;28;19976;-77
2022/07/07 10:26:08;;;;;;;;;;;;;;;16.94;66.12;101725.22;5007433;28;19922;-78
2022/07/07 10:28:52;;;;;;;;;;;;;;;16.99;63.58;101713.69;5003526;28;19929;-78
2022/07/07 10:31:22;;;;;;;;;;;;;;;17.08;63.57;101710.75;5003311;28;19929;-78
2022/07/07 10:34:14;;;;;;;;;;;;;;;16.98;63.01;101722.47;5004018;28;20012;-78
2022/07/07 10:36:58;;;;;;;;;;;;;;;17.15;63.28;101726.28;5004640;28;19963;-78
2022/07/07 10:39:23;;;;;;;;;;;;;;;17.21;63.61;101724.31;5003007;28;19921;-78
2022/07/07 10:42:07;;;;;;;;;;;;;;;17.25;63.58;101740.84;5005113;28;19935;-78
2022/07/07 10:44:33;;;;;;;;;;;;;;;17.26;61.57;101732.94;5002509;28;20024;-78
2022/07/07 10:47:02;;;;;;;;;;;;;;;17.31;61.46;101735.41;5003988;28;20404;-78
2022/07/07 10:49:54;;;;;;;;;;;;;;;17.40;61.97;101735.09;5004210;28;19925;-78
2022/07/07 10:52:24;;;;;;;;;;;;;;;17.50;60.68;101734.69;5000908;28;19933;-78
2022/07/07 10:54:55;;;;;;;;;;;;;;;17.45;60.52;101739.28;4998222;28;19987;-78
2022/07/07 10:57:21;;;;;;;;;;;;;;;17.42;60.93;101734.13;5007395;28;20573;-78
2022/07/07 11:00:06;;;;;;;;;;;;;;;17.39;59.72;101733.34;4993816;28;19932;-78
2022/07/07 11:02:33;;;;;;;;;;;;;;;17.47;59.79;101740.06;4983935;28;19926;-78
2022/07/07 11:04:59;;;;;;;;;;;;;;;17.55;60.75;101738.06;4983210;28;19957;-78
2022/07/07 11:07:25;;;;;;;;;;;;;;;17.63;60.66;101742.19;4988907;28;20008;-78
2022/07/07 11:10:00;;;;;;;;;;;;;;;17.57;60.62;101740.63;5007739;28;20075;-78
2022/07/07 11:12:44;;;;;;;;;;;;;;;17.59;60.46;101752.81;5003932;28;19917;-78
2022/07/07 11:15:16;;;;;;;;;;;;;;;17.56;59.79;101747.63;5007429;28;19924;-79
2022/07/07 11:17:45;;;;;;;;;;;;;;;17.46;60.43;101745.38;5003590;28;20328;-79
2022/07/07 11:20:14;;;;;;;;;;;;;;;17.53;60.38;101760.03;5011331;28;19944;-79
2022/07/07 11:22:46;;;;;;;;;;;;;;;17.43;59.23;101753.38;5009439;28;19932;-79
2022/07/07 11:25:16;;;;;;;;;;;;;;;17.41;58.53;101760.44;5007005;28;19925;-79
2022/07/07 11:27:41;;;;;;;;;;;;;;;17.43;59.01;101777.00;5003765;28;19922;-79
2022/07/07 11:30:07;;;;;;;;;;;;;;;17.41;59.02;101755.19;5000700;28;19929;-79
2022/07/07 11:32:39;;;;;;;;;;;;;;;17.42;58.91;101764.78;4998942;28;19930;-79
2022/07/07 11:35:09;;;;;;;;;;;;;;;17.51;58.86;101761.84;4994917;28;19929;-79
2022/07/07 11:37:37;;;;;;;;;;;;;;;17.73;60.27;101764.63;5006247;28;20086;-79
2022/07/07 11:40:03;;;;;;;;;;;;;;;17.72;58.64;101765.53;5006313;28;19976;-78
2022/07/07 11:42:33;;;;;;;;;;;;;;;17.62;58.70;101770.25;5007294;28;19984;-79
2022/07/07 11:44:59;;;;;;;;;;;;;;;17.62;59.77;101769.41;5007990;28;19925;-79
2022/07/07 11:47:24;;;;;;;;;;;;;;;17.65;59.61;101779.81;5005495;28;20408;-79
2022/07/07 11:49:52;;;;;;;;;;;;;;;17.40;60.92;101783.22;5002498;28;20090;-79
2022/07/07 11:52:21;;;;;;;;;;;;;;;17.21;66.75;101804.88;5002855;28;19933;-79
2022/07/07 11:54:47;;;;;;;;;;;;;;;16.77;66.69;101798.38;5002966;28;19932;-79
2022/07/07 11:57:24;;;;;;;;;;;;;;;16.88;66.27;101801.53;4998309;28;19932;-78
2022/07/07 11:59:50;;;;;;;;;;;;;;;16.84;65.01;101805.19;5000683;28;19933;-77
2022/07/07 12:02:16;;;;;;;;;;;;;;;16.88;64.59;101807.63;5012671;28;19959;-77
2022/07/07 12:04:41;;;;;;;;;;;;;;;16.82;64.01;101807.81;5001286;28;19957;-80
2022/07/07 12:07:10;;;;;;;;;;;;;;;16.87;63.49;101811.19;5000136;28;19965;-80
2022/07/07 12:09:35;;;;;;;;;;;;;;;16.92;63.53;101809.28;5007237;28;20059;-80
2022/07/07 12:12:01;;;;;;;;;;;;;;;17.08;62.76;101807.88;5003808;28;20019;-80
2022/07/07 12:14:27;;;;;;;;;;;;;;;17.19;62.80;101810.19;5001182;28;19933;-81
2022/07/07 12:16:52;;;;;;;;;;;;;;;17.26;61.62;101810.84;5001172;28;19922;-80
2022/07/07 12:19:18;;;;;;;;;;;;;;;17.32;61.30;101800.97;4999809;28;19929;-80
2022/07/07 12:21:45;;;;;;;;;;;;;;;17.48;61.65;101809.22;4998165;28;19940;-80
2022/07/07 12:24:17;;;;;;;;;;;;;;;17.51;62.54;101820.50;5001979;28;20336;-80
2022/07/07 12:26:44;;;;;;;;;;;;;;;17.45;60.91;101815.44;5006482;28;19983;-80
2022/07/07 12:29:09;;;;;;;;;;;;;;;17.47;60.54;101816.25;5003265;28;20016;-80
2022/07/07 12:31:35;;;;;;;;;;;;;;;17.52;60.93;101810.84;5003623;28;20083;-77
2022/07/07 12:34:20;;;;;;;;;;;;;;;17.40;62.10;101819.13;5000566;28;19925;-77